sensor_id;sensor_type;location;lat;lon;timestamp;P1;durP1;ratioP1;P2;durP2;ratioP2
80101;SDS011;69407;44.966;19.622;2023-06-24T00:00:55;11.65;;;2.85;;
80101;SDS011;69407;44.966;19.622;2023-06-24T00:03:21;8.68;;;2.83;;
80101;SDS011;69407;44.966;19.622;2023-06-24T00:05:46;9.70;;;3.70;;
80101;SDS011;69407;44.966;19.622;2023-06-24T00:08:14;9.13;;;2.33;;
80101;SDS011;69407;44.966;19.622;2023-06-24T00:10:44;13.57;;;2.65;;
80101;SDS011;69407;44.966;19.622;2023-06-24T00:13:13;7.47;;;1.85;;
80101;SDS011;69407;44.966;19.622;2023-06-24T00:15:39;4.47;;;1.75;;
80101;SDS011;69407;44.966;19.622;2023-06-24T00:18:08;16.08;;;2.65;;
80101;SDS011;69407;44.966;19.622;2023-06-24T00:20:35;13.15;;;3.25;;
80101;SDS011;69407;44.966;19.622;2023-06-24T00:23:00;9.02;;;1.85;;
80101;SDS011;69407;44.966;19.622;2023-06-24T00:25:26;8.48;;;2.33;;
80101;SDS011;69407;44.966;19.622;2023-06-24T00:27:52;8.15;;;2.35;;
80101;SDS011;69407;44.966;19.622;2023-06-24T00:30:17;5.38;;;2.00;;
80101;SDS011;69407;44.966;19.622;2023-06-24T00:32:43;9.93;;;2.63;;
80101;SDS011;69407;44.966;19.622;2023-06-24T00:35:09;10.65;;;2.00;;
80101;SDS011;69407;44.966;19.622;2023-06-24T00:37:35;9.00;;;3.08;;
80101;SDS011;69407;44.966;19.622;2023-06-24T00:40:01;11.18;;;3.00;;
80101;SDS011;69407;44.966;19.622;2023-06-24T00:42:28;8.85;;;2.35;;
80101;SDS011;69407;44.966;19.622;2023-06-24T00:44:54;7.45;;;2.70;;
80101;SDS011;69407;44.966;19.622;2023-06-24T00:47:19;6.25;;;2.20;;
80101;SDS011;69407;44.966;19.622;2023-06-24T00:49:45;10.20;;;2.58;;
80101;SDS011;69407;44.966;19.622;2023-06-24T00:52:11;9.00;;;2.65;;
80101;SDS011;69407;44.966;19.622;2023-06-24T00:54:41;11.98;;;2.70;;
80101;SDS011;69407;44.966;19.622;2023-06-24T00:57:09;9.07;;;2.67;;
80101;SDS011;69407;44.966;19.622;2023-06-24T00:59:36;12.27;;;2.70;;
80101;SDS011;69407;44.966;19.622;2023-06-24T01:02:02;6.30;;;2.70;;
80101;SDS011;69407;44.966;19.622;2023-06-24T01:04:29;12.55;;;4.18;;
80101;SDS011;69407;44.966;19.622;2023-06-24T01:06:57;11.30;;;3.42;;
80101;SDS011;69407;44.966;19.622;2023-06-24T01:09:22;8.55;;;3.17;;
80101;SDS011;69407;44.966;19.622;2023-06-24T01:11:49;12.77;;;2.58;;
80101;SDS011;69407;44.966;19.622;2023-06-24T01:14:15;7.63;;;3.00;;
80101;SDS011;69407;44.966;19.622;2023-06-24T01:16:51;14.65;;;3.75;;
80101;SDS011;69407;44.966;19.622;2023-06-24T01:33:58;9.48;;;3.22;;
80101;SDS011;69407;44.966;19.622;2023-06-24T01:36:38;7.25;;;2.72;;
80101;SDS011;69407;44.966;19.622;2023-06-24T01:39:07;12.52;;;3.35;;
80101;SDS011;69407;44.966;19.622;2023-06-24T01:41:36;9.05;;;2.78;;
80101;SDS011;69407;44.966;19.622;2023-06-24T01:44:05;8.68;;;2.72;;
80101;SDS011;69407;44.966;19.622;2023-06-24T01:46:35;7.85;;;2.53;;
80101;SDS011;69407;44.966;19.622;2023-06-24T01:49:02;11.88;;;3.13;;
80101;SDS011;69407;44.966;19.622;2023-06-24T01:51:32;9.23;;;2.90;;
80101;SDS011;69407;44.966;19.622;2023-06-24T01:54:02;7.07;;;2.30;;
80101;SDS011;69407;44.966;19.622;2023-06-24T01:56:31;11.63;;;3.53;;
80101;SDS011;69407;44.966;19.622;2023-06-24T01:59:00;10.18;;;3.20;;
80101;SDS011;69407;44.966;19.622;2023-06-24T02:01:28;8.80;;;2.13;;
80101;SDS011;69407;44.966;19.622;2023-06-24T02:03:57;12.30;;;3.17;;
80101;SDS011;69407;44.966;19.622;2023-06-24T02:06:24;6.10;;;1.95;;
80101;SDS011;69407;44.966;19.622;2023-06-24T02:08:53;9.77;;;1.92;;
80101;SDS011;69407;44.966;19.622;2023-06-24T02:11:21;8.70;;;2.47;;
80101;SDS011;69407;44.966;19.622;2023-06-24T02:16:18;6.78;;;2.22;;
80101;SDS011;69407;44.966;19.622;2023-06-24T02:18:46;7.07;;;2.60;;
80101;SDS011;69407;44.966;19.622;2023-06-24T02:21:12;9.18;;;3.35;;
80101;SDS011;69407;44.966;19.622;2023-06-24T02:23:41;9.38;;;2.38;;
80101;SDS011;69407;44.966;19.622;2023-06-24T02:26:07;10.15;;;3.25;;
80101;SDS011;69407;44.966;19.622;2023-06-24T02:28:35;6.38;;;3.05;;
80101;SDS011;69407;44.966;19.622;2023-06-24T02:31:02;8.23;;;3.00;;
80101;SDS011;69407;44.966;19.622;2023-06-24T02:33:28;7.43;;;2.92;;
80101;SDS011;69407;44.966;19.622;2023-06-24T02:35:54;5.60;;;2.78;;
80101;SDS011;69407;44.966;19.622;2023-06-24T02:38:19;5.57;;;2.72;;
80101;SDS011;69407;44.966;19.622;2023-06-24T02:40:45;5.70;;;3.00;;
80101;SDS011;69407;44.966;19.622;2023-06-24T02:43:11;4.30;;;2.25;;
80101;SDS011;69407;44.966;19.622;2023-06-24T02:45:37;5.97;;;3.40;;
80101;SDS011;69407;44.966;19.622;2023-06-24T02:48:03;6.30;;;2.85;;
80101;SDS011;69407;44.966;19.622;2023-06-24T02:50:30;5.30;;;2.58;;
80101;SDS011;69407;44.966;19.622;2023-06-24T02:52:58;7.10;;;2.63;;
80101;SDS011;69407;44.966;19.622;2023-06-24T02:55:24;7.43;;;2.65;;
80101;SDS011;69407;44.966;19.622;2023-06-24T02:57:51;6.90;;;2.78;;
80101;SDS011;69407;44.966;19.622;2023-06-24T03:00:18;8.25;;;2.70;;
80101;SDS011;69407;44.966;19.622;2023-06-24T03:02:44;5.53;;;3.40;;
80101;SDS011;69407;44.966;19.622;2023-06-24T03:05:10;8.07;;;2.30;;
80101;SDS011;69407;44.966;19.622;2023-06-24T03:07:37;6.38;;;2.55;;
80101;SDS011;69407;44.966;19.622;2023-06-24T03:10:03;5.97;;;2.78;;
80101;SDS011;69407;44.966;19.622;2023-06-24T03:12:33;5.80;;;2.72;;
80101;SDS011;69407;44.966;19.622;2023-06-24T03:14:58;5.25;;;2.42;;
80101;SDS011;69407;44.966;19.622;2023-06-24T03:17:25;5.72;;;2.55;;
80101;SDS011;69407;44.966;19.622;2023-06-24T03:19:51;4.82;;;2.65;;
80101;SDS011;69407;44.966;19.622;2023-06-24T03:22:17;6.53;;;2.67;;
80101;SDS011;69407;44.966;19.622;2023-06-24T03:24:42;6.63;;;3.75;;
80101;SDS011;69407;44.966;19.622;2023-06-24T03:27:08;6.70;;;2.78;;
80101;SDS011;69407;44.966;19.622;2023-06-24T03:29:33;5.82;;;3.15;;
80101;SDS011;69407;44.966;19.622;2023-06-24T03:31:59;6.22;;;3.72;;
80101;SDS011;69407;44.966;19.622;2023-06-24T03:34:25;5.25;;;2.90;;
80101;SDS011;69407;44.966;19.622;2023-06-24T03:36:52;5.28;;;3.13;;
80101;SDS011;69407;44.966;19.622;2023-06-24T03:39:19;8.38;;;4.30;;
80101;SDS011;69407;44.966;19.622;2023-06-24T03:41:45;6.38;;;3.55;;
80101;SDS011;69407;44.966;19.622;2023-06-24T03:44:11;10.27;;;3.88;;
80101;SDS011;69407;44.966;19.622;2023-06-24T03:46:37;6.22;;;3.28;;
80101;SDS011;69407;44.966;19.622;2023-06-24T03:49:02;5.80;;;3.75;;
80101;SDS011;69407;44.966;19.622;2023-06-24T03:51:28;5.85;;;3.67;;
80101;SDS011;69407;44.966;19.622;2023-06-24T03:53:53;9.90;;;3.65;;
80101;SDS011;69407;44.966;19.622;2023-06-24T03:56:19;6.75;;;3.70;;
80101;SDS011;69407;44.966;19.622;2023-06-24T03:58:44;8.60;;;3.65;;
80101;SDS011;69407;44.966;19.622;2023-06-24T04:01:10;7.85;;;3.50;;
80101;SDS011;69407;44.966;19.622;2023-06-24T04:03:35;7.80;;;3.25;;
80101;SDS011;69407;44.966;19.622;2023-06-24T04:06:01;5.55;;;3.28;;
80101;SDS011;69407;44.966;19.622;2023-06-24T04:08:26;7.10;;;3.70;;
80101;SDS011;69407;44.966;19.622;2023-06-24T04:10:55;7.00;;;3.67;;
80101;SDS011;69407;44.966;19.622;2023-06-24T04:13:21;7.07;;;3.35;;
80101;SDS011;69407;44.966;19.622;2023-06-24T04:15:47;8.32;;;4.55;;
80101;SDS011;69407;44.966;19.622;2023-06-24T04:18:12;5.88;;;3.03;;
80101;SDS011;69407;44.966;19.622;2023-06-24T04:20:39;6.70;;;4.22;;
80101;SDS011;69407;44.966;19.622;2023-06-24T04:23:04;6.15;;;3.58;;
80101;SDS011;69407;44.966;19.622;2023-06-24T04:25:31;7.85;;;3.63;;
80101;SDS011;69407;44.966;19.622;2023-06-24T04:27:56;6.43;;;3.63;;
80101;SDS011;69407;44.966;19.622;2023-06-24T04:30:22;7.57;;;3.17;;
80101;SDS011;69407;44.966;19.622;2023-06-24T04:32:48;6.10;;;4.20;;
80101;SDS011;69407;44.966;19.622;2023-06-24T04:35:13;7.32;;;3.22;;
80101;SDS011;69407;44.966;19.622;2023-06-24T04:38:00;7.85;;;3.38;;
80101;SDS011;69407;44.966;19.622;2023-06-24T04:40:24;7.25;;;3.63;;
80101;SDS011;69407;44.966;19.622;2023-06-24T04:42:50;8.40;;;3.28;;
80101;SDS011;69407;44.966;19.622;2023-06-24T04:45:15;7.65;;;3.55;;
80101;SDS011;69407;44.966;19.622;2023-06-24T04:47:41;6.50;;;3.50;;
80101;SDS011;69407;44.966;19.622;2023-06-24T04:50:07;10.07;;;3.17;;
80101;SDS011;69407;44.966;19.622;2023-06-24T04:52:35;6.78;;;3.80;;
80101;SDS011;69407;44.966;19.622;2023-06-24T04:55:00;7.43;;;3.00;;
80101;SDS011;69407;44.966;19.622;2023-06-24T04:57:27;7.25;;;4.45;;
80101;SDS011;69407;44.966;19.622;2023-06-24T04:59:53;5.13;;;2.72;;
80101;SDS011;69407;44.966;19.622;2023-06-24T05:02:19;5.63;;;2.90;;
80101;SDS011;69407;44.966;19.622;2023-06-24T05:04:45;8.43;;;3.28;;
80101;SDS011;69407;44.966;19.622;2023-06-24T05:07:10;7.38;;;3.70;;
80101;SDS011;69407;44.966;19.622;2023-06-24T05:09:36;8.65;;;3.75;;
80101;SDS011;69407;44.966;19.622;2023-06-24T05:12:06;7.28;;;3.50;;
80101;SDS011;69407;44.966;19.622;2023-06-24T05:14:35;9.57;;;4.10;;
80101;SDS011;69407;44.966;19.622;2023-06-24T05:17:01;6.05;;;3.30;;
80101;SDS011;69407;44.966;19.622;2023-06-24T05:19:27;7.30;;;3.53;;
80101;SDS011;69407;44.966;19.622;2023-06-24T05:21:53;6.45;;;3.35;;
80101;SDS011;69407;44.966;19.622;2023-06-24T05:24:18;8.45;;;3.13;;
80101;SDS011;69407;44.966;19.622;2023-06-24T05:26:48;7.25;;;2.88;;
80101;SDS011;69407;44.966;19.622;2023-06-24T05:29:14;6.50;;;3.40;;
80101;SDS011;69407;44.966;19.622;2023-06-24T05:31:40;8.70;;;2.60;;
80101;SDS011;69407;44.966;19.622;2023-06-24T05:34:05;6.95;;;3.38;;
80101;SDS011;69407;44.966;19.622;2023-06-24T05:36:31;5.50;;;3.00;;
80101;SDS011;69407;44.966;19.622;2023-06-24T05:38:56;9.40;;;3.55;;
80101;SDS011;69407;44.966;19.622;2023-06-24T05:41:22;4.55;;;2.78;;
80101;SDS011;69407;44.966;19.622;2023-06-24T05:43:47;4.13;;;2.60;;
80101;SDS011;69407;44.966;19.622;2023-06-24T05:46:13;6.35;;;3.38;;
80101;SDS011;69407;44.966;19.622;2023-06-24T05:48:38;7.30;;;2.78;;
80101;SDS011;69407;44.966;19.622;2023-06-24T05:51:04;8.65;;;3.58;;
80101;SDS011;69407;44.966;19.622;2023-06-24T05:53:29;6.30;;;3.30;;
80101;SDS011;69407;44.966;19.622;2023-06-24T05:55:55;6.18;;;3.10;;
80101;SDS011;69407;44.966;19.622;2023-06-24T05:58:20;5.50;;;3.47;;
80101;SDS011;69407;44.966;19.622;2023-06-24T06:00:46;8.52;;;3.63;;
80101;SDS011;69407;44.966;19.622;2023-06-24T06:03:11;7.30;;;3.25;;
80101;SDS011;69407;44.966;19.622;2023-06-24T06:05:36;7.30;;;3.97;;
80101;SDS011;69407;44.966;19.622;2023-06-24T06:08:02;6.57;;;4.22;;
80101;SDS011;69407;44.966;19.622;2023-06-24T06:10:28;7.03;;;2.95;;
80101;SDS011;69407;44.966;19.622;2023-06-24T06:12:55;6.68;;;3.08;;
80101;SDS011;69407;44.966;19.622;2023-06-24T06:15:20;5.75;;;3.25;;
80101;SDS011;69407;44.966;19.622;2023-06-24T06:17:46;6.72;;;3.13;;
80101;SDS011;69407;44.966;19.622;2023-06-24T06:20:12;5.22;;;3.03;;
80101;SDS011;69407;44.966;19.622;2023-06-24T06:22:37;6.20;;;3.42;;
80101;SDS011;69407;44.966;19.622;2023-06-24T06:25:06;10.60;;;3.40;;
80101;SDS011;69407;44.966;19.622;2023-06-24T06:27:32;4.95;;;2.70;;
80101;SDS011;69407;44.966;19.622;2023-06-24T06:29:58;10.13;;;3.10;;
80101;SDS011;69407;44.966;19.622;2023-06-24T06:32:24;6.88;;;3.40;;
80101;SDS011;69407;44.966;19.622;2023-06-24T06:34:49;8.95;;;4.13;;
80101;SDS011;69407;44.966;19.622;2023-06-24T06:37:15;7.13;;;4.20;;
80101;SDS011;69407;44.966;19.622;2023-06-24T06:39:40;5.75;;;3.25;;
80101;SDS011;69407;44.966;19.622;2023-06-24T06:42:06;8.15;;;3.60;;
80101;SDS011;69407;44.966;19.622;2023-06-24T06:44:31;4.40;;;2.72;;
80101;SDS011;69407;44.966;19.622;2023-06-24T06:46:57;7.60;;;4.05;;
80101;SDS011;69407;44.966;19.622;2023-06-24T06:49:22;6.35;;;2.80;;
80101;SDS011;69407;44.966;19.622;2023-06-24T06:51:48;6.07;;;3.00;;
80101;SDS011;69407;44.966;19.622;2023-06-24T06:54:13;5.72;;;2.35;;
80101;SDS011;69407;44.966;19.622;2023-06-24T06:56:39;5.55;;;2.58;;
80101;SDS011;69407;44.966;19.622;2023-06-24T06:59:05;5.30;;;2.78;;
80101;SDS011;69407;44.966;19.622;2023-06-24T07:01:30;6.68;;;2.58;;
80101;SDS011;69407;44.966;19.622;2023-06-24T07:03:56;7.40;;;3.85;;
80101;SDS011;69407;44.966;19.622;2023-06-24T07:06:21;6.72;;;3.40;;
80101;SDS011;69407;44.966;19.622;2023-06-24T07:08:47;14.90;;;2.88;;
80101;SDS011;69407;44.966;19.622;2023-06-24T07:11:12;5.60;;;2.90;;
80101;SDS011;69407;44.966;19.622;2023-06-24T07:13:38;6.03;;;2.97;;
80101;SDS011;69407;44.966;19.622;2023-06-24T07:16:03;5.22;;;2.30;;
80101;SDS011;69407;44.966;19.622;2023-06-24T07:18:29;8.00;;;3.45;;
80101;SDS011;69407;44.966;19.622;2023-06-24T07:20:55;7.57;;;5.50;;
80101;SDS011;69407;44.966;19.622;2023-06-24T07:23:21;7.50;;;2.60;;
80101;SDS011;69407;44.966;19.622;2023-06-24T07:25:47;4.25;;;2.47;;
80101;SDS011;69407;44.966;19.622;2023-06-24T07:28:12;6.32;;;2.38;;
80101;SDS011;69407;44.966;19.622;2023-06-24T07:30:38;4.82;;;2.50;;
80101;SDS011;69407;44.966;19.622;2023-06-24T07:33:03;5.65;;;2.03;;
80101;SDS011;69407;44.966;19.622;2023-06-24T07:35:31;4.00;;;2.40;;
80101;SDS011;69407;44.966;19.622;2023-06-24T07:37:59;3.85;;;2.10;;
80101;SDS011;69407;44.966;19.622;2023-06-24T07:40:25;3.53;;;1.67;;
80101;SDS011;69407;44.966;19.622;2023-06-24T07:42:51;5.70;;;2.67;;
80101;SDS011;69407;44.966;19.622;2023-06-24T07:45:16;3.90;;;2.13;;
80101;SDS011;69407;44.966;19.622;2023-06-24T07:47:42;8.10;;;2.28;;
80101;SDS011;69407;44.966;19.622;2023-06-24T07:50:08;5.20;;;2.05;;
80101;SDS011;69407;44.966;19.622;2023-06-24T07:52:36;4.22;;;1.45;;
80101;SDS011;69407;44.966;19.622;2023-06-24T07:55:01;4.25;;;2.22;;
80101;SDS011;69407;44.966;19.622;2023-06-24T07:57:28;6.68;;;1.92;;
80101;SDS011;69407;44.966;19.622;2023-06-24T07:59:54;3.95;;;1.58;;
80101;SDS011;69407;44.966;19.622;2023-06-24T08:02:20;5.50;;;1.85;;
80101;SDS011;69407;44.966;19.622;2023-06-24T08:04:46;4.35;;;1.55;;
80101;SDS011;69407;44.966;19.622;2023-06-24T08:07:11;4.43;;;1.90;;
80101;SDS011;69407;44.966;19.622;2023-06-24T08:09:37;3.67;;;1.52;;
80101;SDS011;69407;44.966;19.622;2023-06-24T08:12:03;3.67;;;1.75;;
80101;SDS011;69407;44.966;19.622;2023-06-24T08:14:29;4.00;;;2.08;;
80101;SDS011;69407;44.966;19.622;2023-06-24T08:16:54;6.55;;;2.15;;
80101;SDS011;69407;44.966;19.622;2023-06-24T08:19:20;2.58;;;1.67;;
80101;SDS011;69407;44.966;19.622;2023-06-24T08:21:45;3.33;;;1.50;;
80101;SDS011;69407;44.966;19.622;2023-06-24T08:24:11;3.25;;;1.77;;
80101;SDS011;69407;44.966;19.622;2023-06-24T08:26:36;2.83;;;1.52;;
80101;SDS011;69407;44.966;19.622;2023-06-24T08:29:01;3.33;;;1.13;;
80101;SDS011;69407;44.966;19.622;2023-06-24T08:31:27;4.95;;;2.22;;
80101;SDS011;69407;44.966;19.622;2023-06-24T08:33:52;5.53;;;1.80;;
80101;SDS011;69407;44.966;19.622;2023-06-24T08:36:21;4.10;;;1.83;;
80101;SDS011;69407;44.966;19.622;2023-06-24T08:38:47;2.65;;;1.40;;
80101;SDS011;69407;44.966;19.622;2023-06-24T08:41:13;4.20;;;2.15;;
80101;SDS011;69407;44.966;19.622;2023-06-24T08:43:38;6.63;;;1.92;;
80101;SDS011;69407;44.966;19.622;2023-06-24T08:46:05;6.28;;;1.63;;
80101;SDS011;69407;44.966;19.622;2023-06-24T08:48:30;4.28;;;1.67;;
80101;SDS011;69407;44.966;19.622;2023-06-24T08:50:57;2.17;;;1.48;;
80101;SDS011;69407;44.966;19.622;2023-06-24T08:53:26;4.55;;;1.45;;
80101;SDS011;69407;44.966;19.622;2023-06-24T08:55:53;4.30;;;1.60;;
80101;SDS011;69407;44.966;19.622;2023-06-24T08:58:19;2.75;;;1.77;;
80101;SDS011;69407;44.966;19.622;2023-06-24T09:00:44;2.60;;;1.25;;
80101;SDS011;69407;44.966;19.622;2023-06-24T09:03:11;2.63;;;1.65;;
80101;SDS011;69407;44.966;19.622;2023-06-24T09:05:37;2.80;;;1.48;;
80101;SDS011;69407;44.966;19.622;2023-06-24T09:08:02;5.63;;;1.63;;
80101;SDS011;69407;44.966;19.622;2023-06-24T09:12:57;5.30;;;1.33;;
80101;SDS011;69407;44.966;19.622;2023-06-24T09:15:23;2.45;;;0.93;;
80101;SDS011;69407;44.966;19.622;2023-06-24T09:17:49;2.78;;;1.92;;
80101;SDS011;69407;44.966;19.622;2023-06-24T09:20:14;3.72;;;1.65;;
80101;SDS011;69407;44.966;19.622;2023-06-24T09:22:45;3.95;;;1.20;;
80101;SDS011;69407;44.966;19.622;2023-06-24T09:25:13;4.72;;;1.65;;
80101;SDS011;69407;44.966;19.622;2023-06-24T09:27:46;7.93;;;1.50;;
80101;SDS011;69407;44.966;19.622;2023-06-24T09:30:20;2.97;;;1.63;;
80101;SDS011;69407;44.966;19.622;2023-06-24T09:32:47;3.70;;;1.40;;
80101;SDS011;69407;44.966;19.622;2023-06-24T09:35:13;2.33;;;1.20;;
80101;SDS011;69407;44.966;19.622;2023-06-24T09:37:39;2.50;;;0.88;;
80101;SDS011;69407;44.966;19.622;2023-06-24T09:40:05;7.45;;;1.48;;
80101;SDS011;69407;44.966;19.622;2023-06-24T09:42:31;3.88;;;0.90;;
80101;SDS011;69407;44.966;19.622;2023-06-24T09:44:57;2.80;;;1.00;;
80101;SDS011;69407;44.966;19.622;2023-06-24T09:47:23;2.95;;;0.93;;
80101;SDS011;69407;44.966;19.622;2023-06-24T09:49:53;3.17;;;1.40;;
80101;SDS011;69407;44.966;19.622;2023-06-24T09:52:19;3.92;;;1.25;;
80101;SDS011;69407;44.966;19.622;2023-06-24T09:54:51;5.22;;;1.52;;
80101;SDS011;69407;44.966;19.622;2023-06-24T09:57:22;2.40;;;0.82;;
80101;SDS011;69407;44.966;19.622;2023-06-24T09:59:52;3.53;;;1.10;;
80101;SDS011;69407;44.966;19.622;2023-06-24T10:02:18;3.25;;;0.80;;
80101;SDS011;69407;44.966;19.622;2023-06-24T10:04:43;3.83;;;1.05;;
80101;SDS011;69407;44.966;19.622;2023-06-24T10:07:11;2.70;;;1.27;;
80101;SDS011;69407;44.966;19.622;2023-06-24T10:09:39;1.30;;;0.82;;
80101;SDS011;69407;44.966;19.622;2023-06-24T10:12:05;1.77;;;0.80;;
80101;SDS011;69407;44.966;19.622;2023-06-24T10:14:31;1.27;;;0.52;;
80101;SDS011;69407;44.966;19.622;2023-06-24T10:17:03;4.80;;;1.00;;
80101;SDS011;69407;44.966;19.622;2023-06-24T10:19:29;1.98;;;0.73;;
80101;SDS011;69407;44.966;19.622;2023-06-24T10:21:58;5.38;;;1.13;;
80101;SDS011;69407;44.966;19.622;2023-06-24T10:24:31;2.15;;;0.90;;
80101;SDS011;69407;44.966;19.622;2023-06-24T10:27:04;4.43;;;1.00;;
80101;SDS011;69407;44.966;19.622;2023-06-24T10:29:36;3.47;;;1.10;;
80101;SDS011;69407;44.966;19.622;2023-06-24T10:32:09;2.40;;;1.48;;
80101;SDS011;69407;44.966;19.622;2023-06-24T10:37:03;3.38;;;1.83;;
80101;SDS011;69407;44.966;19.622;2023-06-24T10:39:50;6.03;;;1.15;;
80101;SDS011;69407;44.966;19.622;2023-06-24T10:42:40;5.53;;;1.88;;
80101;SDS011;69407;44.966;19.622;2023-06-24T10:47:49;4.85;;;2.55;;
80101;SDS011;69407;44.966;19.622;2023-06-24T10:50:20;3.83;;;1.08;;
80101;SDS011;69407;44.966;19.622;2023-06-24T10:52:48;5.25;;;1.70;;
80101;SDS011;69407;44.966;19.622;2023-06-24T10:55:18;2.75;;;1.05;;
80101;SDS011;69407;44.966;19.622;2023-06-24T10:57:44;2.53;;;1.25;;
80101;SDS011;69407;44.966;19.622;2023-06-24T11:00:11;5.13;;;2.38;;
80101;SDS011;69407;44.966;19.622;2023-06-24T11:02:37;5.45;;;2.67;;
80101;SDS011;69407;44.966;19.622;2023-06-24T11:05:03;4.72;;;2.70;;
80101;SDS011;69407;44.966;19.622;2023-06-24T11:07:30;4.60;;;2.42;;
80101;SDS011;69407;44.966;19.622;2023-06-24T11:10:01;3.50;;;2.47;;
80101;SDS011;69407;44.966;19.622;2023-06-24T11:12:32;5.30;;;2.47;;
80101;SDS011;69407;44.966;19.622;2023-06-24T11:15:02;3.55;;;2.55;;
80101;SDS011;69407;44.966;19.622;2023-06-24T11:17:29;5.03;;;3.00;;
80101;SDS011;69407;44.966;19.622;2023-06-24T11:19:55;4.03;;;2.35;;
80101;SDS011;69407;44.966;19.622;2023-06-24T11:22:23;4.90;;;2.50;;
80101;SDS011;69407;44.966;19.622;2023-06-24T11:24:49;3.88;;;2.45;;
80101;SDS011;69407;44.966;19.622;2023-06-24T11:27:15;5.93;;;2.38;;
80101;SDS011;69407;44.966;19.622;2023-06-24T11:29:41;5.00;;;3.00;;
80101;SDS011;69407;44.966;19.622;2023-06-24T11:32:07;10.10;;;3.55;;
80101;SDS011;69407;44.966;19.622;2023-06-24T11:34:33;5.63;;;2.83;;
80101;SDS011;69407;44.966;19.622;2023-06-24T11:37:08;4.45;;;2.90;;
80101;SDS011;69407;44.966;19.622;2023-06-24T11:39:35;5.95;;;2.65;;
80101;SDS011;69407;44.966;19.622;2023-06-24T11:42:01;6.78;;;1.98;;
80101;SDS011;69407;44.966;19.622;2023-06-24T11:44:26;5.10;;;2.45;;
80101;SDS011;69407;44.966;19.622;2023-06-24T11:46:52;5.53;;;2.33;;
80101;SDS011;69407;44.966;19.622;2023-06-24T11:49:18;7.07;;;2.85;;
80101;SDS011;69407;44.966;19.622;2023-06-24T11:54:18;5.20;;;2.33;;
80101;SDS011;69407;44.966;19.622;2023-06-24T11:56:49;6.50;;;2.42;;
80101;SDS011;69407;44.966;19.622;2023-06-24T12:01:54;6.07;;;2.70;;
80101;SDS011;69407;44.966;19.622;2023-06-24T12:04:21;5.30;;;1.90;;
80101;SDS011;69407;44.966;19.622;2023-06-24T12:06:53;6.25;;;2.22;;
80101;SDS011;69407;44.966;19.622;2023-06-24T12:09:19;5.53;;;2.33;;
80101;SDS011;69407;44.966;19.622;2023-06-24T12:11:45;7.68;;;2.40;;
80101;SDS011;69407;44.966;19.622;2023-06-24T12:14:10;5.00;;;2.33;;
80101;SDS011;69407;44.966;19.622;2023-06-24T12:16:36;4.15;;;2.08;;
80101;SDS011;69407;44.966;19.622;2023-06-24T12:19:01;4.72;;;1.85;;
80101;SDS011;69407;44.966;19.622;2023-06-24T12:21:27;4.43;;;1.90;;
80101;SDS011;69407;44.966;19.622;2023-06-24T12:23:53;8.38;;;2.13;;
80101;SDS011;69407;44.966;19.622;2023-06-24T12:26:18;3.53;;;1.65;;
80101;SDS011;69407;44.966;19.622;2023-06-24T12:28:44;3.08;;;1.15;;
80101;SDS011;69407;44.966;19.622;2023-06-24T12:31:09;4.97;;;1.88;;
80101;SDS011;69407;44.966;19.622;2023-06-24T12:33:35;5.60;;;1.70;;
80101;SDS011;69407;44.966;19.622;2023-06-24T12:36:00;6.88;;;1.27;;
80101;SDS011;69407;44.966;19.622;2023-06-24T12:38:26;2.35;;;1.17;;
80101;SDS011;69407;44.966;19.622;2023-06-24T12:40:51;2.47;;;1.13;;
80101;SDS011;69407;44.966;19.622;2023-06-24T12:43:17;3.55;;;1.13;;
80101;SDS011;69407;44.966;19.622;2023-06-24T12:45:43;8.00;;;2.42;;
80101;SDS011;69407;44.966;19.622;2023-06-24T12:48:09;3.03;;;1.35;;
80101;SDS011;69407;44.966;19.622;2023-06-24T12:50:35;2.50;;;1.60;;
80101;SDS011;69407;44.966;19.622;2023-06-24T12:53:01;3.63;;;0.90;;
80101;SDS011;69407;44.966;19.622;2023-06-24T12:55:28;2.75;;;1.38;;
80101;SDS011;69407;44.966;19.622;2023-06-24T12:57:53;7.95;;;1.65;;
80101;SDS011;69407;44.966;19.622;2023-06-24T13:00:19;5.75;;;1.48;;
80101;SDS011;69407;44.966;19.622;2023-06-24T13:02:46;5.15;;;1.67;;
80101;SDS011;69407;44.966;19.622;2023-06-24T13:05:12;5.60;;;1.60;;
80101;SDS011;69407;44.966;19.622;2023-06-24T13:07:37;3.53;;;1.50;;
80101;SDS011;69407;44.966;19.622;2023-06-24T13:10:03;23.08;;;2.03;;
80101;SDS011;69407;44.966;19.622;2023-06-24T13:12:31;7.60;;;1.40;;
80101;SDS011;69407;44.966;19.622;2023-06-24T13:15:00;4.45;;;1.02;;
80101;SDS011;69407;44.966;19.622;2023-06-24T13:17:25;7.60;;;1.40;;
80101;SDS011;69407;44.966;19.622;2023-06-24T13:19:51;2.95;;;1.48;;
80101;SDS011;69407;44.966;19.622;2023-06-24T13:22:17;2.83;;;1.50;;
80101;SDS011;69407;44.966;19.622;2023-06-24T13:24:42;5.78;;;1.63;;
80101;SDS011;69407;44.966;19.622;2023-06-24T13:27:08;5.78;;;2.28;;
80101;SDS011;69407;44.966;19.622;2023-06-24T13:29:33;9.45;;;3.28;;
80101;SDS011;69407;44.966;19.622;2023-06-24T13:31:59;9.30;;;2.30;;
80101;SDS011;69407;44.966;19.622;2023-06-24T13:34:24;3.60;;;1.77;;
80101;SDS011;69407;44.966;19.622;2023-06-24T13:36:50;3.13;;;1.75;;
80101;SDS011;69407;44.966;19.622;2023-06-24T13:39:15;3.80;;;0.95;;
80101;SDS011;69407;44.966;19.622;2023-06-24T13:41:44;3.42;;;1.90;;
80101;SDS011;69407;44.966;19.622;2023-06-24T13:44:10;3.20;;;1.40;;
80101;SDS011;69407;44.966;19.622;2023-06-24T13:46:36;2.60;;;1.05;;
80101;SDS011;69407;44.966;19.622;2023-06-24T13:49:01;2.25;;;0.85;;
80101;SDS011;69407;44.966;19.622;2023-06-24T13:51:27;3.25;;;1.20;;
80101;SDS011;69407;44.966;19.622;2023-06-24T13:53:54;2.65;;;0.70;;
80101;SDS011;69407;44.966;19.622;2023-06-24T13:56:20;3.05;;;1.35;;
80101;SDS011;69407;44.966;19.622;2023-06-24T13:58:47;1.50;;;0.85;;
80101;SDS011;69407;44.966;19.622;2023-06-24T14:01:13;3.53;;;1.35;;
80101;SDS011;69407;44.966;19.622;2023-06-24T14:03:39;2.50;;;0.98;;
80101;SDS011;69407;44.966;19.622;2023-06-24T14:06:05;9.75;;;1.45;;
80101;SDS011;69407;44.966;19.622;2023-06-24T14:08:31;6.63;;;1.13;;
80101;SDS011;69407;44.966;19.622;2023-06-24T14:10:57;2.28;;;0.85;;
80101;SDS011;69407;44.966;19.622;2023-06-24T14:13:23;2.40;;;0.80;;
80101;SDS011;69407;44.966;19.622;2023-06-24T14:15:50;2.95;;;0.73;;
80101;SDS011;69407;44.966;19.622;2023-06-24T14:18:15;1.90;;;0.88;;
80101;SDS011;69407;44.966;19.622;2023-06-24T14:20:41;1.42;;;0.65;;
80101;SDS011;69407;44.966;19.622;2023-06-24T14:23:06;2.90;;;1.35;;
80101;SDS011;69407;44.966;19.622;2023-06-24T14:25:32;14.50;;;1.33;;
80101;SDS011;69407;44.966;19.622;2023-06-24T14:27:57;2.42;;;0.65;;
80101;SDS011;69407;44.966;19.622;2023-06-24T14:30:23;3.15;;;0.73;;
80101;SDS011;69407;44.966;19.622;2023-06-24T14:32:48;3.60;;;0.82;;
80101;SDS011;69407;44.966;19.622;2023-06-24T14:35:14;2.25;;;0.77;;
80101;SDS011;69407;44.966;19.622;2023-06-24T14:37:39;2.78;;;0.95;;
80101;SDS011;69407;44.966;19.622;2023-06-24T14:40:07;1.83;;;0.77;;
80101;SDS011;69407;44.966;19.622;2023-06-24T14:42:33;1.70;;;0.70;;
80101;SDS011;69407;44.966;19.622;2023-06-24T14:44:58;2.00;;;0.95;;
80101;SDS011;69407;44.966;19.622;2023-06-24T14:47:24;3.58;;;0.98;;
80101;SDS011;69407;44.966;19.622;2023-06-24T14:49:49;1.80;;;0.60;;
80101;SDS011;69407;44.966;19.622;2023-06-24T14:52:16;1.98;;;0.55;;
80101;SDS011;69407;44.966;19.622;2023-06-24T14:54:42;2.42;;;0.98;;
80101;SDS011;69407;44.966;19.622;2023-06-24T14:57:07;1.70;;;0.80;;
80101;SDS011;69407;44.966;19.622;2023-06-24T14:59:33;3.00;;;0.65;;